NORTHEAST SUFFOLK  -  Winter Weather Advisory Winter Weather Advisory        NORTHERN NASSAU  -  Winter Weather Advisory Winter Weather Advisory        NORTHWEST SUFFOLK  -  Winter Weather Advisory Winter Weather Advisory        SOUTHEAST SUFFOLK  -  Winter Weather Advisory Winter Weather Advisory        SOUTHERN NASSAU  -  Winter Weather Advisory Winter Weather Advisory        SOUTHWEST SUFFOLK  -  Winter Weather Advisory Winter Weather Advisory      

Active alerts

Northern Nassau
  Details for Northern Nassau Winter Weather Advisory
Southern Nassau
  Details for Southern Nassau Winter Weather Advisory
Northwest Suffolk
  Details for Northwest Suffolk Winter Weather Advisory
Southwest Suffolk
  Details for Southwest Suffolk Winter Weather Advisory
Northeast Suffolk
  Details for Northeast Suffolk Winter Weather Advisory
Southeast Suffolk
  Details for Southeast Suffolk Winter Weather Advisory


WXM80 ListenWXM80 Stop

You find our weather info also at:

UK Metoffice

WeatherCloud

Weather Underground

Northeastern Weather Network

AWEKAS

Citizen Weather Observer Program (CWOP)

HAMweather, WeatherForYou, PWS Weather


Weather Underground History page Text

Daily Summary for March 20, 2017 Units:  Both    English   Metric
« Previous Day
Next Day »
Daily Weekly Monthly Yearly Custom
  High: Low: Average:
Temperature: 52.0 °F /  11.1 °C 32.5 °F /  0.3 °C 42 °F /  5.6 °C
Dew Point: 29.5 °F /  -1.4 °C 20.2 °F /  -6.6 °C 24.3 °F /  -4.3 °C
Humidity: 79 % 30 % 52 %
Wind Speed: 8.0 mph /  12.9 km/h - 2.7 mph /  4.3 km/h
Wind Gust: 12.0 mph /  19.3 km/h - -
Wind:- - WNW
Pressure: 30.11 in /  1019.5 hPa 29.93 in /  1013.4 hPa -
Precipitation: 0.00 in /  0 mm    
Historical Graphs
 
 
Tabular Data for March 20, 2017
Time Temperature Dew Point Pressure Wind Wind Speed Wind Gust Humidity Rainfall Rate (Hourly)
00:01 32.9 °F /  0.5 °C 26.8 °F /  -2.9 °C 30.09 in /  1018.8 hPa NW 0.9 mph /  1.4 km/h 2.3 mph /  3.7 km/h 78 % 0.00 in /  0 mm
00:06 32.9 °F /  0.5 °C 26.8 °F /  -2.9 °C 30.10 in /  1019.2 hPa NW 0.6 mph /  1 km/h 1.2 mph /  1.9 km/h 78 % 0.00 in /  0 mm
00:11 32.9 °F /  0.5 °C 27.1 °F /  -2.7 °C 30.09 in /  1018.8 hPa Calm   1.0 mph /  1.6 km/h 79 % 0.00 in /  0 mm
00:16 32.8 °F /  0.4 °C 27.0 °F /  -2.8 °C 30.09 in /  1018.8 hPa Calm     79 % 0.00 in /  0 mm
00:21 32.8 °F /  0.4 °C 27.0 °F /  -2.8 °C 30.09 in /  1018.8 hPa NW 0.1 mph /  0.2 km/h 2.3 mph /  3.7 km/h 79 % 0.00 in /  0 mm
00:26 32.8 °F /  0.4 °C 27.0 °F /  -2.8 °C 30.09 in /  1018.8 hPa NW 0.4 mph /  0.6 km/h 2.3 mph /  3.7 km/h 79 % 0.00 in /  0 mm
00:31 32.7 °F /  0.4 °C 26.9 °F /  -2.8 °C 30.09 in /  1018.8 hPa Calm   1.2 mph /  1.9 km/h 79 % 0.00 in /  0 mm
00:36 32.6 °F /  0.3 °C 26.8 °F /  -2.9 °C 30.09 in /  1018.8 hPa NW 1.0 mph /  1.6 km/h 2.3 mph /  3.7 km/h 79 % 0.00 in /  0 mm
00:41 32.5 °F /  0.3 °C 26.7 °F /  -2.9 °C 30.08 in /  1018.5 hPa NW 2.6 mph /  4.2 km/h 3.5 mph /  5.6 km/h 79 % 0.00 in /  0 mm
00:47 32.5 °F /  0.3 °C 26.4 °F /  -3.1 °C 30.08 in /  1018.5 hPa NW 1.0 mph /  1.6 km/h 2.3 mph /  3.7 km/h 78 % 0.00 in /  0 mm
00:52 32.5 °F /  0.3 °C 26.4 °F /  -3.1 °C 30.09 in /  1018.8 hPa NW 2.8 mph /  4.5 km/h 3.5 mph /  5.6 km/h 78 % 0.00 in /  0 mm
00:57 32.5 °F /  0.3 °C 26.4 °F /  -3.1 °C 30.08 in /  1018.5 hPa WNW 2.0 mph /  3.2 km/h 3.5 mph /  5.6 km/h 78 % 0.00 in /  0 mm
00:58 32.5 °F /  0.3 °C 26.4 °F /  -3.1 °C 30.08 in /  1018.5 hPa WNW 2.1 mph /  3.4 km/h 3.5 mph /  5.6 km/h 78 % 0.00 in /  0 mm
01:03 32.5 °F /  0.3 °C 26.4 °F /  -3.1 °C 30.08 in /  1018.5 hPa WNW 2.6 mph /  4.2 km/h 3.5 mph /  5.6 km/h 78 % 0.00 in /  0 mm
01:08 32.6 °F /  0.3 °C 26.5 °F /  -3.1 °C 30.08 in /  1018.5 hPa WNW 2.9 mph /  4.7 km/h 3.5 mph /  5.6 km/h 78 % 0.00 in /  0 mm
01:13 32.7 °F /  0.4 °C 26.3 °F /  -3.2 °C 30.08 in /  1018.5 hPa WNW 2.2 mph /  3.5 km/h 3.5 mph /  5.6 km/h 77 % 0.00 in /  0 mm
01:18 32.8 °F /  0.4 °C 26.1 °F /  -3.3 °C 30.08 in /  1018.5 hPa WNW 1.4 mph /  2.3 km/h 4.6 mph /  7.4 km/h 76 % 0.00 in /  0 mm
01:23 33.0 °F /  0.6 °C 25.9 °F /  -3.4 °C 30.09 in /  1018.8 hPa WNW 2.9 mph /  4.7 km/h 5.0 mph /  8 km/h 75 % 0.00 in /  0 mm
01:28 33.2 °F /  0.7 °C 26.1 °F /  -3.3 °C 30.08 in /  1018.5 hPa WNW 2.4 mph /  3.9 km/h 3.5 mph /  5.6 km/h 75 % 0.00 in /  0 mm
01:33 33.4 °F /  0.8 °C 26.0 °F /  -3.3 °C 30.08 in /  1018.5 hPa WNW 2.7 mph /  4.3 km/h 4.6 mph /  7.4 km/h 74 % 0.00 in /  0 mm
01:38 33.6 °F /  0.9 °C 25.9 °F /  -3.4 °C 30.08 in /  1018.5 hPa NNW 2.0 mph /  3.2 km/h 8.0 mph /  12.9 km/h 73 % 0.00 in /  0 mm
01:43 33.8 °F /  1 °C 25.7 °F /  -3.5 °C 30.08 in /  1018.5 hPa NW 1.1 mph /  1.8 km/h 3.5 mph /  5.6 km/h 72 % 0.00 in /  0 mm
01:48 34.0 °F /  1.1 °C 25.9 °F /  -3.4 °C 30.09 in /  1018.8 hPa WNW 2.3 mph /  3.7 km/h 4.6 mph /  7.4 km/h 72 % 0.00 in /  0 mm
01:53 34.3 °F /  1.3 °C 25.9 °F /  -3.4 °C 30.09 in /  1018.8 hPa NW 2.0 mph /  3.2 km/h 5.0 mph /  8 km/h 71 % 0.00 in /  0 mm
01:58 34.5 °F /  1.4 °C 25.7 °F /  -3.5 °C 30.09 in /  1018.8 hPa NW 3.8 mph /  6.1 km/h 5.8 mph /  9.3 km/h 70 % 0.00 in /  0 mm
02:03 34.7 °F /  1.5 °C 25.6 °F /  -3.6 °C 30.09 in /  1018.8 hPa WNW 2.8 mph /  4.5 km/h 5.8 mph /  9.3 km/h 69 % 0.00 in /  0 mm
02:08 34.9 °F /  1.6 °C 25.4 °F /  -3.7 °C 30.09 in /  1018.8 hPa NW 2.9 mph /  4.7 km/h 5.8 mph /  9.3 km/h 68 % 0.00 in /  0 mm
02:13 35.0 °F /  1.7 °C 25.5 °F /  -3.6 °C 30.09 in /  1018.8 hPa NW 1.9 mph /  3.1 km/h 5.8 mph /  9.3 km/h 68 % 0.00 in /  0 mm
02:18 35.1 °F /  1.7 °C 25.6 °F /  -3.6 °C 30.09 in /  1018.8 hPa WNW 2.9 mph /  4.7 km/h 4.6 mph /  7.4 km/h 68 % 0.00 in /  0 mm
02:23 35.2 °F /  1.8 °C 25.3 °F /  -3.7 °C 30.09 in /  1018.8 hPa NNW 4.3 mph /  6.9 km/h 6.0 mph /  9.7 km/h 67 % 0.00 in /  0 mm
02:28 35.2 °F /  1.8 °C 25.3 °F /  -3.7 °C 30.08 in /  1018.5 hPa WNW 3.0 mph /  4.8 km/h 7.0 mph /  11.3 km/h 67 % 0.00 in /  0 mm
02:33 35.3 °F /  1.8 °C 25.1 °F /  -3.8 °C 30.08 in /  1018.5 hPa NW 1.8 mph /  2.9 km/h 5.8 mph /  9.3 km/h 66 % 0.00 in /  0 mm
02:38 35.3 °F /  1.8 °C 25.1 °F /  -3.8 °C 30.08 in /  1018.5 hPa WNW 3.3 mph /  5.3 km/h 6.0 mph /  9.7 km/h 66 % 0.00 in /  0 mm
02:39 35.3 °F /  1.8 °C 25.1 °F /  -3.8 °C 30.08 in /  1018.5 hPa WNW 3.8 mph /  6.1 km/h 5.8 mph /  9.3 km/h 66 % 0.00 in /  0 mm
02:44 35.4 °F /  1.9 °C 25.2 °F /  -3.8 °C 30.08 in /  1018.5 hPa NW 2.2 mph /  3.5 km/h 4.6 mph /  7.4 km/h 66 % 0.00 in /  0 mm
02:49 35.4 °F /  1.9 °C 25.2 °F /  -3.8 °C 30.08 in /  1018.5 hPa NW 3.0 mph /  4.8 km/h 5.8 mph /  9.3 km/h 66 % 0.00 in /  0 mm
02:54 35.5 °F /  1.9 °C 24.9 °F /  -3.9 °C 30.08 in /  1018.5 hPa WNW 4.3 mph /  6.9 km/h 9.2 mph /  14.8 km/h 65 % 0.00 in /  0 mm
02:59 35.5 °F /  1.9 °C 25.3 °F /  -3.7 °C 30.08 in /  1018.5 hPa NNW 2.6 mph /  4.2 km/h 4.6 mph /  7.4 km/h 66 % 0.00 in /  0 mm
03:04 35.5 °F /  1.9 °C 25.3 °F /  -3.7 °C 30.08 in /  1018.5 hPa NNW 3.6 mph /  5.8 km/h 9.2 mph /  14.8 km/h 66 % 0.00 in /  0 mm
03:09 35.5 °F /  1.9 °C 25.3 °F /  -3.7 °C 30.08 in /  1018.5 hPa NW 4.0 mph /  6.4 km/h 5.8 mph /  9.3 km/h 66 % 0.00 in /  0 mm
03:14 35.4 °F /  1.9 °C 25.2 °F /  -3.8 °C 30.08 in /  1018.5 hPa NW 2.5 mph /  4 km/h 5.8 mph /  9.3 km/h 66 % 0.00 in /  0 mm
03:19 35.4 °F /  1.9 °C 24.4 °F /  -4.2 °C 30.08 in /  1018.5 hPa NW 1.5 mph /  2.4 km/h 5.8 mph /  9.3 km/h 64 % 0.00 in /  0 mm
03:24 35.4 °F /  1.9 °C 24.4 °F /  -4.2 °C 30.08 in /  1018.5 hPa NW 4.2 mph /  6.8 km/h 8.1 mph /  13 km/h 64 % 0.00 in /  0 mm
03:29 35.4 °F /  1.9 °C 24.4 °F /  -4.2 °C 30.08 in /  1018.5 hPa NW 1.5 mph /  2.4 km/h 3.5 mph /  5.6 km/h 64 % 0.00 in /  0 mm
03:34 35.3 °F /  1.8 °C 24.3 °F /  -4.3 °C 30.08 in /  1018.5 hPa NW 3.5 mph /  5.6 km/h 6.9 mph /  11.1 km/h 64 % 0.00 in /  0 mm
03:39 35.2 °F /  1.8 °C 23.9 °F /  -4.5 °C 30.08 in /  1018.5 hPa North 3.0 mph /  4.8 km/h 6.0 mph /  9.7 km/h 63 % 0.00 in /  0 mm
03:44 35.2 °F /  1.8 °C 23.9 °F /  -4.5 °C 30.08 in /  1018.5 hPa NNW 2.6 mph /  4.2 km/h 4.0 mph /  6.4 km/h 63 % 0.00 in /  0 mm
03:49 35.1 °F /  1.7 °C 24.1 °F /  -4.4 °C 30.08 in /  1018.5 hPa NW 2.7 mph /  4.3 km/h 5.8 mph /  9.3 km/h 64 % 0.00 in /  0 mm
03:54 35.1 °F /  1.7 °C 23.8 °F /  -4.6 °C 30.08 in /  1018.5 hPa NNW 3.6 mph /  5.8 km/h 5.0 mph /  8 km/h 63 % 0.00 in /  0 mm
03:59 35.0 °F /  1.7 °C 23.3 °F /  -4.8 °C 30.08 in /  1018.5 hPa North 3.8 mph /  6.1 km/h 4.6 mph /  7.4 km/h 62 % 0.00 in /  0 mm
04:04 34.9 °F /  1.6 °C 23.6 °F /  -4.7 °C 30.08 in /  1018.5 hPa NNW 4.1 mph /  6.6 km/h 4.1 mph /  6.6 km/h 63 % 0.00 in /  0 mm
04:09 34.8 °F /  1.6 °C 23.5 °F /  -4.7 °C 30.07 in /  1018.2 hPa NW 3.2 mph /  5.1 km/h 5.8 mph /  9.3 km/h 63 % 0.00 in /  0 mm
04:14 34.8 °F /  1.6 °C 23.5 °F /  -4.7 °C 30.08 in /  1018.5 hPa NW 3.4 mph /  5.5 km/h 4.6 mph /  7.4 km/h 63 % 0.00 in /  0 mm
04:19 34.7 °F /  1.5 °C 23.0 °F /  -5 °C 30.07 in /  1018.2 hPa NW 5.1 mph /  8.2 km/h 6.9 mph /  11.1 km/h 62 % 0.00 in /  0 mm
04:20 34.7 °F /  1.5 °C 23.0 °F /  -5 °C 30.08 in /  1018.5 hPa NW 3.4 mph /  5.5 km/h 7.0 mph /  11.3 km/h 62 % 0.00 in /  0 mm
04:25 34.6 °F /  1.4 °C 22.9 °F /  -5.1 °C 30.07 in /  1018.2 hPa NNW 1.4 mph /  2.3 km/h 3.5 mph /  5.6 km/h 62 % 0.00 in /  0 mm
04:30 34.5 °F /  1.4 °C 22.4 °F /  -5.3 °C 30.07 in /  1018.2 hPa NNW 2.2 mph /  3.5 km/h 5.8 mph /  9.3 km/h 61 % 0.00 in /  0 mm
04:35 34.5 °F /  1.4 °C 22.8 °F /  -5.1 °C 30.07 in /  1018.2 hPa NNW 2.2 mph /  3.5 km/h 6.9 mph /  11.1 km/h 62 % 0.00 in /  0 mm
04:40 34.4 °F /  1.3 °C 22.7 °F /  -5.2 °C 30.07 in /  1018.2 hPa North 3.7 mph /  6 km/h 5.0 mph /  8 km/h 62 % 0.00 in /  0 mm
04:45 34.3 °F /  1.3 °C 22.6 °F /  -5.2 °C 30.07 in /  1018.2 hPa North 3.1 mph /  5 km/h 6.9 mph /  11.1 km/h 62 % 0.00 in /  0 mm
04:50 34.2 °F /  1.2 °C 22.5 °F /  -5.3 °C 30.07 in /  1018.2 hPa NNW 4.6 mph /  7.4 km/h 6.9 mph /  11.1 km/h 62 % 0.00 in /  0 mm
04:55 34.1 °F /  1.2 °C 22.4 °F /  -5.3 °C 30.08 in /  1018.5 hPa North 2.6 mph /  4.2 km/h 6.0 mph /  9.7 km/h 62 % 0.00 in /  0 mm
05:00 34.1 °F /  1.2 °C 22.4 °F /  -5.3 °C 30.08 in /  1018.5 hPa North 3.0 mph /  4.8 km/h 8.1 mph /  13 km/h 62 % 0.00 in /  0 mm
05:05 34.0 °F /  1.1 °C 22.3 °F /  -5.4 °C 30.08 in /  1018.5 hPa NNW 3.1 mph /  5 km/h 5.0 mph /  8 km/h 62 % 0.00 in /  0 mm
05:10 34.0 °F /  1.1 °C 22.7 °F /  -5.2 °C 30.08 in /  1018.5 hPa NNW 3.3 mph /  5.3 km/h 3.5 mph /  5.6 km/h 63 % 0.00 in /  0 mm
05:15 33.9 °F /  1.1 °C 22.2 °F /  -5.4 °C 30.08 in /  1018.5 hPa North 3.8 mph /  6.1 km/h 5.0 mph /  8 km/h 62 % 0.00 in /  0 mm
05:20 33.8 °F /  1 °C 22.5 °F /  -5.3 °C 30.08 in /  1018.5 hPa NW 2.7 mph /  4.3 km/h 4.6 mph /  7.4 km/h 63 % 0.00 in /  0 mm
05:25 33.7 °F /  0.9 °C 22.4 °F /  -5.3 °C 30.08 in /  1018.5 hPa WNW 2.6 mph /  4.2 km/h 4.6 mph /  7.4 km/h 63 % 0.00 in /  0 mm
05:30 33.7 °F /  0.9 °C 22.4 °F /  -5.3 °C 30.08 in /  1018.5 hPa NW 3.8 mph /  6.1 km/h 6.9 mph /  11.1 km/h 63 % 0.00 in /  0 mm
05:35 33.6 °F /  0.9 °C 22.3 °F /  -5.4 °C 30.08 in /  1018.5 hPa North 3.4 mph /  5.5 km/h 4.6 mph /  7.4 km/h 63 % 0.00 in /  0 mm
05:40 33.6 °F /  0.9 °C 22.7 °F /  -5.2 °C 30.08 in /  1018.5 hPa Calm   3.5 mph /  5.6 km/h 64 % 0.00 in /  0 mm
05:45 33.5 °F /  0.8 °C 23.0 °F /  -5 °C 30.08 in /  1018.5 hPa NW 1.6 mph /  2.6 km/h 6.9 mph /  11.1 km/h 65 % 0.00 in /  0 mm
05:50 33.4 °F /  0.8 °C 22.5 °F /  -5.3 °C 30.08 in /  1018.5 hPa NW 3.4 mph /  5.5 km/h 6.9 mph /  11.1 km/h 64 % 0.00 in /  0 mm
05:55 33.4 °F /  0.8 °C 22.9 °F /  -5.1 °C 30.08 in /  1018.5 hPa NW 2.3 mph /  3.7 km/h 3.5 mph /  5.6 km/h 65 % 0.00 in /  0 mm
06:00 33.4 °F /  0.8 °C 22.5 °F /  -5.3 °C 30.08 in /  1018.5 hPa NNW 3.8 mph /  6.1 km/h 5.8 mph /  9.3 km/h 64 % 0.00 in /  0 mm
06:06 33.4 °F /  0.8 °C 22.9 °F /  -5.1 °C 30.08 in /  1018.5 hPa NW 2.9 mph /  4.7 km/h 4.0 mph /  6.4 km/h 65 % 0.00 in /  0 mm
06:11 33.4 °F /  0.8 °C 22.9 °F /  -5.1 °C 30.08 in /  1018.5 hPa NW 2.6 mph /  4.2 km/h 4.6 mph /  7.4 km/h 65 % 0.00 in /  0 mm
06:16 33.3 °F /  0.7 °C 22.8 °F /  -5.1 °C 30.08 in /  1018.5 hPa NW 1.4 mph /  2.3 km/h 4.6 mph /  7.4 km/h 65 % 0.00 in /  0 mm
06:21 33.3 °F /  0.7 °C 22.8 °F /  -5.1 °C 30.08 in /  1018.5 hPa NW 3.3 mph /  5.3 km/h 6.9 mph /  11.1 km/h 65 % 0.00 in /  0 mm
06:26 33.3 °F /  0.7 °C 22.8 °F /  -5.1 °C 30.08 in /  1018.5 hPa North 5.0 mph /  8 km/h 5.0 mph /  8 km/h 65 % 0.00 in /  0 mm
06:31 33.3 °F /  0.7 °C 22.8 °F /  -5.1 °C 30.08 in /  1018.5 hPa NW 2.2 mph /  3.5 km/h 5.8 mph /  9.3 km/h 65 % 0.00 in /  0 mm
06:36 33.4 °F /  0.8 °C 22.9 °F /  -5.1 °C 30.08 in /  1018.5 hPa North 1.9 mph /  3.1 km/h 4.6 mph /  7.4 km/h 65 % 0.00 in /  0 mm
06:41 33.4 °F /  0.8 °C 23.3 °F /  -4.8 °C 30.08 in /  1018.5 hPa NW 1.9 mph /  3.1 km/h 4.6 mph /  7.4 km/h 66 % 0.00 in /  0 mm
06:46 33.3 °F /  0.7 °C 23.2 °F /  -4.9 °C 30.09 in /  1018.8 hPa Calm   1.0 mph /  1.6 km/h 66 % 0.00 in /  0 mm
06:51 33.3 °F /  0.7 °C 23.2 °F /  -4.9 °C 30.09 in /  1018.8 hPa North 2.1 mph /  3.4 km/h 5.8 mph /  9.3 km/h 66 % 0.00 in /  0 mm
06:56 33.2 °F /  0.7 °C 23.1 °F /  -4.9 °C 30.09 in /  1018.8 hPa NNW 0.1 mph /  0.2 km/h 1.2 mph /  1.9 km/h 66 % 0.00 in /  0 mm
07:01 33.2 °F /  0.7 °C 23.1 °F /  -4.9 °C 30.08 in /  1018.5 hPa NW 1.9 mph /  3.1 km/h 3.5 mph /  5.6 km/h 66 % 0.00 in /  0 mm
07:06 33.2 °F /  0.7 °C 23.1 °F /  -4.9 °C 30.08 in /  1018.5 hPa Calm     66 % 0.00 in /  0 mm
07:11 33.2 °F /  0.7 °C 23.1 °F /  -4.9 °C 30.09 in /  1018.8 hPa Calm     66 % 0.00 in /  0 mm
07:16 33.2 °F /  0.7 °C 23.1 °F /  -4.9 °C 30.09 in /  1018.8 hPa NNW 3.8 mph /  6.1 km/h 5.0 mph /  8 km/h 66 % 0.00 in /  0 mm
07:21 33.2 °F /  0.7 °C 23.1 °F /  -4.9 °C 30.09 in /  1018.8 hPa WNW 4.9 mph /  7.9 km/h 9.2 mph /  14.8 km/h 66 % 0.00 in /  0 mm
07:26 33.4 °F /  0.8 °C 23.3 °F /  -4.8 °C 30.09 in /  1018.8 hPa WNW 3.5 mph /  5.6 km/h 10.0 mph /  16.1 km/h 66 % 0.00 in /  0 mm
07:31 33.6 °F /  0.9 °C 23.4 °F /  -4.8 °C 30.09 in /  1018.8 hPa NW 4.4 mph /  7.1 km/h 5.8 mph /  9.3 km/h 66 % 0.00 in /  0 mm
07:36 33.8 °F /  1 °C 23.6 °F /  -4.7 °C 30.09 in /  1018.8 hPa NW 1.8 mph /  2.9 km/h 5.8 mph /  9.3 km/h 66 % 0.00 in /  0 mm
07:41 34.1 °F /  1.2 °C 23.9 °F /  -4.5 °C 30.10 in /  1019.2 hPa WNW 3.8 mph /  6.1 km/h 7.0 mph /  11.3 km/h 66 % 0.00 in /  0 mm
07:47 34.3 °F /  1.3 °C 23.7 °F /  -4.6 °C 30.10 in /  1019.2 hPa WNW 2.7 mph /  4.3 km/h 6.9 mph /  11.1 km/h 65 % 0.00 in /  0 mm
07:52 34.6 °F /  1.4 °C 24.0 °F /  -4.4 °C 30.10 in /  1019.2 hPa NW 6.3 mph /  10.1 km/h 11.5 mph /  18.5 km/h 65 % 0.00 in /  0 mm
07:57 34.9 °F /  1.6 °C 24.3 °F /  -4.3 °C 30.10 in /  1019.2 hPa NW 4.2 mph /  6.8 km/h 10.4 mph /  16.7 km/h 65 % 0.00 in /  0 mm
08:02 35.2 °F /  1.8 °C 24.6 °F /  -4.1 °C 30.10 in /  1019.2 hPa NW 3.3 mph /  5.3 km/h 6.9 mph /  11.1 km/h 65 % 0.00 in /  0 mm
08:07 35.4 °F /  1.9 °C 24.4 °F /  -4.2 °C 30.10 in /  1019.2 hPa WNW 5.0 mph /  8 km/h 8.1 mph /  13 km/h 64 % 0.00 in /  0 mm
08:12 35.5 °F /  1.9 °C 23.8 °F /  -4.6 °C 30.10 in /  1019.2 hPa NNE 5.7 mph /  9.2 km/h 9.2 mph /  14.8 km/h 62 % 0.00 in /  0 mm
08:17 35.7 °F /  2.1 °C 24.3 °F /  -4.3 °C 30.10 in /  1019.2 hPa WNW 3.4 mph /  5.5 km/h 6.0 mph /  9.7 km/h 63 % 0.00 in /  0 mm
08:22 35.9 °F /  2.2 °C 24.1 °F /  -4.4 °C 30.10 in /  1019.2 hPa WNW 5.1 mph /  8.2 km/h 8.1 mph /  13 km/h 62 % 0.00 in /  0 mm
08:27 36.1 °F /  2.3 °C 23.9 °F /  -4.5 °C 30.11 in /  1019.5 hPa North 4.2 mph /  6.8 km/h 8.1 mph /  13 km/h 61 % 0.00 in /  0 mm
08:32 36.4 °F /  2.4 °C 24.2 °F /  -4.3 °C 30.11 in /  1019.5 hPa West 5.8 mph /  9.3 km/h 10.4 mph /  16.7 km/h 61 % 0.00 in /  0 mm
08:37 36.6 °F /  2.6 °C 24.0 °F /  -4.4 °C 30.11 in /  1019.5 hPa NW 3.7 mph /  6 km/h 5.0 mph /  8 km/h 60 % 0.00 in /  0 mm
08:42 36.8 °F /  2.7 °C 23.8 °F /  -4.6 °C 30.11 in /  1019.5 hPa NW 6.1 mph /  9.8 km/h 10.4 mph /  16.7 km/h 59 % 0.00 in /  0 mm
08:47 37.1 °F /  2.8 °C 24.1 °F /  -4.4 °C 30.10 in /  1019.2 hPa WNW 5.2 mph /  8.4 km/h 10.0 mph /  16.1 km/h 59 % 0.00 in /  0 mm
08:57 37.6 °F /  3.1 °C 24.1 °F /  -4.4 °C 30.11 in /  1019.5 hPa North 3.8 mph /  6.1 km/h 8.1 mph /  13 km/h 58 % 0.00 in /  0 mm
09:02 38.0 °F /  3.3 °C 24.5 °F /  -4.2 °C 30.10 in /  1019.2 hPa NW 3.2 mph /  5.1 km/h 9.2 mph /  14.8 km/h 58 % 0.00 in /  0 mm
09:08 38.2 °F /  3.4 °C 24.3 °F /  -4.3 °C 30.10 in /  1019.2 hPa NNW 5.0 mph /  8 km/h 8.0 mph /  12.9 km/h 57 % 0.00 in /  0 mm
09:13 38.5 °F /  3.6 °C 24.6 °F /  -4.1 °C 30.10 in /  1019.2 hPa NW 3.8 mph /  6.1 km/h 6.9 mph /  11.1 km/h 57 % 0.00 in /  0 mm
09:18 38.6 °F /  3.7 °C 24.7 °F /  -4.1 °C 30.10 in /  1019.2 hPa NNW 3.5 mph /  5.6 km/h 6.0 mph /  9.7 km/h 57 % 0.00 in /  0 mm
09:23 38.8 °F /  3.8 °C 24.4 °F /  -4.2 °C 30.10 in /  1019.2 hPa NW 3.4 mph /  5.5 km/h 8.1 mph /  13 km/h 56 % 0.00 in /  0 mm
09:28 38.9 °F /  3.8 °C 24.9 °F /  -3.9 °C 30.10 in /  1019.2 hPa NNW 3.0 mph /  4.8 km/h 5.0 mph /  8 km/h 57 % 0.00 in /  0 mm
09:33 39.2 °F /  4 °C 24.8 °F /  -4 °C 30.10 in /  1019.2 hPa NW 3.5 mph /  5.6 km/h 6.9 mph /  11.1 km/h 56 % 0.00 in /  0 mm
09:38 39.4 °F /  4.1 °C 25.0 °F /  -3.9 °C 30.10 in /  1019.2 hPa NNW 3.0 mph /  4.8 km/h 7.0 mph /  11.3 km/h 56 % 0.00 in /  0 mm
09:43 39.7 °F /  4.3 °C 24.8 °F /  -4 °C 30.10 in /  1019.2 hPa NNW 3.0 mph /  4.8 km/h 7.0 mph /  11.3 km/h 55 % 0.00 in /  0 mm
09:48 39.8 °F /  4.3 °C 24.5 °F /  -4.2 °C 30.10 in /  1019.2 hPa NW 3.0 mph /  4.8 km/h 12.0 mph /  19.3 km/h 54 % 0.00 in /  0 mm
09:53 40.0 °F /  4.4 °C 25.1 °F /  -3.8 °C 30.10 in /  1019.2 hPa NW 5.0 mph /  8 km/h 8.0 mph /  12.9 km/h 55 % 0.00 in /  0 mm
09:58 40.3 °F /  4.6 °C 25.8 °F /  -3.4 °C 30.10 in /  1019.2 hPa NW 4.5 mph /  7.2 km/h 6.0 mph /  9.7 km/h 56 % 0.00 in /  0 mm
10:03 40.6 °F /  4.8 °C 25.7 °F /  -3.5 °C 30.10 in /  1019.2 hPa WNW 2.7 mph /  4.3 km/h 6.9 mph /  11.1 km/h 55 % 0.00 in /  0 mm
10:08 40.8 °F /  4.9 °C 25.0 °F /  -3.9 °C 30.10 in /  1019.2 hPa NW 2.5 mph /  4 km/h 5.8 mph /  9.3 km/h 53 % 0.00 in /  0 mm
10:13 40.9 °F /  4.9 °C 25.1 °F /  -3.8 °C 30.10 in /  1019.2 hPa NW 3.0 mph /  4.8 km/h 6.9 mph /  11.1 km/h 53 % 0.00 in /  0 mm
10:18 41.1 °F /  5.1 °C 25.3 °F /  -3.7 °C 30.10 in /  1019.2 hPa NW 2.8 mph /  4.5 km/h 8.1 mph /  13 km/h 53 % 0.00 in /  0 mm
10:23 41.3 °F /  5.2 °C 25.4 °F /  -3.7 °C 30.10 in /  1019.2 hPa WNW 3.4 mph /  5.5 km/h 9.2 mph /  14.8 km/h 53 % 0.00 in /  0 mm
10:28 41.6 °F /  5.3 °C 25.7 °F /  -3.5 °C 30.09 in /  1018.8 hPa WNW 3.7 mph /  6 km/h 6.9 mph /  11.1 km/h 53 % 0.00 in /  0 mm
10:33 42.0 °F /  5.6 °C 25.6 °F /  -3.6 °C 30.09 in /  1018.8 hPa NW 6.7 mph /  10.8 km/h 10.0 mph /  16.1 km/h 52 % 0.00 in /  0 mm
10:38 42.4 °F /  5.8 °C 26.0 °F /  -3.3 °C 30.09 in /  1018.8 hPa WNW 4.8 mph /  7.7 km/h 8.1 mph /  13 km/h 52 % 0.00 in /  0 mm
10:43 42.9 °F /  6.1 °C 26.9 °F /  -2.8 °C 30.08 in /  1018.5 hPa WNW 2.9 mph /  4.7 km/h 5.8 mph /  9.3 km/h 53 % 0.00 in /  0 mm
10:48 43.3 °F /  6.3 °C 26.4 °F /  -3.1 °C 30.08 in /  1018.5 hPa WNW 3.5 mph /  5.6 km/h 4.6 mph /  7.4 km/h 51 % 0.00 in /  0 mm
10:53 43.7 °F /  6.5 °C 25.8 °F /  -3.4 °C 30.08 in /  1018.5 hPa NNW 2.1 mph /  3.4 km/h 4.6 mph /  7.4 km/h 49 % 0.00 in /  0 mm
10:58 44.1 °F /  6.7 °C 26.6 °F /  -3 °C 30.08 in /  1018.5 hPa NW 4.1 mph /  6.6 km/h 5.0 mph /  8 km/h 50 % 0.00 in /  0 mm
11:03 44.5 °F /  6.9 °C 26.5 °F /  -3.1 °C 30.07 in /  1018.2 hPa West 5.3 mph /  8.5 km/h 5.8 mph /  9.3 km/h 49 % 0.00 in /  0 mm
11:08 44.7 °F /  7.1 °C 28.1 °F /  -2.2 °C 30.07 in /  1018.2 hPa WNW 3.4 mph /  5.5 km/h 3.5 mph /  5.6 km/h 52 % 0.00 in /  0 mm
11:13 44.9 °F /  7.2 °C 27.8 °F /  -2.3 °C 30.07 in /  1018.2 hPa NNW 2.6 mph /  4.2 km/h 3.5 mph /  5.6 km/h 51 % 0.00 in /  0 mm
11:18 45.3 °F /  7.4 °C 27.2 °F /  -2.7 °C 30.07 in /  1018.2 hPa North 2.3 mph /  3.7 km/h 3.5 mph /  5.6 km/h 49 % 0.00 in /  0 mm
11:23 45.8 °F /  7.7 °C 27.7 °F /  -2.4 °C 30.07 in /  1018.2 hPa NNW 4.4 mph /  7.1 km/h 5.8 mph /  9.3 km/h 49 % 0.00 in /  0 mm
11:28 46.5 °F /  8.1 °C 27.8 °F /  -2.3 °C 30.07 in /  1018.2 hPa North 3.5 mph /  5.6 km/h 5.0 mph /  8 km/h 48 % 0.00 in /  0 mm
11:33 47.0 °F /  8.3 °C 27.8 °F /  -2.3 °C 30.07 in /  1018.2 hPa NW 3.9 mph /  6.3 km/h 4.0 mph /  6.4 km/h 47 % 0.00 in /  0 mm
11:39 47.4 °F /  8.6 °C 26.0 °F /  -3.3 °C 30.06 in /  1017.8 hPa NW 1.9 mph /  3.1 km/h 6.9 mph /  11.1 km/h 43 % 0.00 in /  0 mm
11:44 47.8 °F /  8.8 °C 29.5 °F /  -1.4 °C 30.06 in /  1017.8 hPa NNW 2.7 mph /  4.3 km/h 4.6 mph /  7.4 km/h 49 % 0.00 in /  0 mm
11:49 48.1 °F /  8.9 °C 28.3 °F /  -2.1 °C 30.06 in /  1017.8 hPa NNW 2.7 mph /  4.3 km/h 5.8 mph /  9.3 km/h 46 % 0.00 in /  0 mm
11:54 48.7 °F /  9.3 °C 27.7 °F /  -2.4 °C 30.05 in /  1017.5 hPa NNW 3.2 mph /  5.1 km/h 8.1 mph /  13 km/h 44 % 0.00 in /  0 mm
11:59 48.9 °F /  9.4 °C 28.5 °F /  -1.9 °C 30.05 in /  1017.5 hPa WNW 2.0 mph /  3.2 km/h 6.9 mph /  11.1 km/h 45 % 0.00 in /  0 mm
12:04 48.8 °F /  9.3 °C 27.3 °F /  -2.6 °C 30.04 in /  1017.2 hPa NNW 4.1 mph /  6.6 km/h 5.8 mph /  9.3 km/h 43 % 0.00 in /  0 mm
12:09 48.6 °F /  9.2 °C 26.5 °F /  -3.1 °C 30.04 in /  1017.2 hPa NW 4.2 mph /  6.8 km/h 6.9 mph /  11.1 km/h 42 % 0.00 in /  0 mm
12:14 48.6 °F /  9.2 °C 26.5 °F /  -3.1 °C 30.04 in /  1017.2 hPa NW 3.2 mph /  5.1 km/h 4.6 mph /  7.4 km/h 42 % 0.00 in /  0 mm
12:19 48.8 °F /  9.3 °C 26.7 °F /  -2.9 °C 30.04 in /  1017.2 hPa NNW 2.3 mph /  3.7 km/h 3.5 mph /  5.6 km/h 42 % 0.00 in /  0 mm
12:24 49.0 °F /  9.4 °C 25.7 °F /  -3.5 °C 30.04 in /  1017.2 hPa WNW 2.7 mph /  4.3 km/h 5.8 mph /  9.3 km/h 40 % 0.00 in /  0 mm
12:29 48.7 °F /  9.3 °C 24.8 °F /  -4 °C 30.04 in /  1017.2 hPa WNW 3.3 mph /  5.3 km/h 5.0 mph /  8 km/h 39 % 0.00 in /  0 mm
12:34 48.7 °F /  9.3 °C 26.6 °F /  -3 °C 30.03 in /  1016.8 hPa NNE 2.0 mph /  3.2 km/h 6.0 mph /  9.7 km/h 42 % 0.00 in /  0 mm
12:39 49.0 °F /  9.4 °C 26.9 °F /  -2.8 °C 30.03 in /  1016.8 hPa WSW 1.8 mph /  2.9 km/h 3.5 mph /  5.6 km/h 42 % 0.00 in /  0 mm
12:44 49.0 °F /  9.4 °C 23.8 °F /  -4.6 °C 30.04 in /  1017.2 hPa West 2.4 mph /  3.9 km/h 6.0 mph /  9.7 km/h 37 % 0.00 in /  0 mm
12:49 49.0 °F /  9.4 °C 25.1 °F /  -3.8 °C 30.03 in /  1016.8 hPa NW 2.3 mph /  3.7 km/h 6.0 mph /  9.7 km/h 39 % 0.00 in /  0 mm
12:55 49.3 °F /  9.6 °C 24.1 °F /  -4.4 °C 30.03 in /  1016.8 hPa North 2.2 mph /  3.5 km/h 5.0 mph /  8 km/h 37 % 0.00 in /  0 mm
13:00 49.5 °F /  9.7 °C 22.3 °F /  -5.4 °C 30.03 in /  1016.8 hPa West 2.1 mph /  3.4 km/h 8.1 mph /  13 km/h 34 % 0.00 in /  0 mm
13:05 49.3 °F /  9.6 °C 22.8 °F /  -5.1 °C 30.03 in /  1016.8 hPa WNW 2.0 mph /  3.2 km/h 4.6 mph /  7.4 km/h 35 % 0.00 in /  0 mm
13:10 49.4 °F /  9.7 °C 22.2 °F /  -5.4 °C 30.03 in /  1016.8 hPa WNW 2.1 mph /  3.4 km/h 4.6 mph /  7.4 km/h 34 % 0.00 in /  0 mm
13:15 49.7 °F /  9.8 °C 25.7 °F /  -3.5 °C 30.02 in /  1016.5 hPa WNW 4.4 mph /  7.1 km/h 6.9 mph /  11.1 km/h 39 % 0.00 in /  0 mm
13:20 50.0 °F /  10 °C 22.7 °F /  -5.2 °C 30.02 in /  1016.5 hPa SW 1.6 mph /  2.6 km/h 4.0 mph /  6.4 km/h 34 % 0.00 in /  0 mm
13:22 50.1 °F /  10.1 °C 22.8 °F /  -5.1 °C 30.02 in /  1016.5 hPa NW 5.0 mph /  8 km/h 5.8 mph /  9.3 km/h 34 % 0.00 in /  0 mm
13:28 50.2 °F /  10.1 °C 22.9 °F /  -5.1 °C 30.02 in /  1016.5 hPa WSW 2.5 mph /  4 km/h 9.2 mph /  14.8 km/h 34 % 0.00 in /  0 mm
13:33 50.5 °F /  10.3 °C 23.9 °F /  -4.5 °C 30.02 in /  1016.5 hPa West 3.0 mph /  4.8 km/h 7.0 mph /  11.3 km/h 35 % 0.00 in /  0 mm
13:38 50.9 °F /  10.5 °C 23.5 °F /  -4.7 °C 30.02 in /  1016.5 hPa WNW 3.0 mph /  4.8 km/h 6.0 mph /  9.7 km/h 34 % 0.00 in /  0 mm
13:43 51.2 °F /  10.7 °C 25.1 °F /  -3.8 °C 30.02 in /  1016.5 hPa NW 2.0 mph /  3.2 km/h 6.0 mph /  9.7 km/h 36 % 0.00 in /  0 mm
13:48 51.5 °F /  10.8 °C 23.3 °F /  -4.8 °C 30.02 in /  1016.5 hPa NW 5.0 mph /  8 km/h 8.0 mph /  12.9 km/h 33 % 0.00 in /  0 mm
13:53 51.5 °F /  10.8 °C 25.4 °F /  -3.7 °C 30.02 in /  1016.5 hPa WNW 5.0 mph /  8 km/h 8.0 mph /  12.9 km/h 36 % 0.00 in /  0 mm
13:58 51.4 °F /  10.8 °C 23.9 °F /  -4.5 °C 30.02 in /  1016.5 hPa West 6.9 mph /  11.1 km/h 8.1 mph /  13 km/h 34 % 0.00 in /  0 mm
14:03 51.4 °F /  10.8 °C 24.6 °F /  -4.1 °C 30.02 in /  1016.5 hPa WNW 2.0 mph /  3.2 km/h 10.0 mph /  16.1 km/h 35 % 0.00 in /  0 mm
14:04 51.4 °F /  10.8 °C 24.6 °F /  -4.1 °C 30.02 in /  1016.5 hPa West 0.7 mph /  1.1 km/h 5.8 mph /  9.3 km/h 35 % 0.00 in /  0 mm
14:09 51.4 °F /  10.8 °C 23.2 °F /  -4.9 °C 30.02 in /  1016.5 hPa WSW 5.4 mph /  8.7 km/h 8.0 mph /  12.9 km/h 33 % 0.00 in /  0 mm
14:14 51.4 °F /  10.8 °C 22.5 °F /  -5.3 °C 30.02 in /  1016.5 hPa NW 5.7 mph /  9.2 km/h 8.1 mph /  13 km/h 32 % 0.00 in /  0 mm
14:19 51.4 °F /  10.8 °C 23.2 °F /  -4.9 °C 30.01 in /  1016.1 hPa NW 5.9 mph /  9.5 km/h 9.2 mph /  14.8 km/h 33 % 0.00 in /  0 mm
14:24 51.5 °F /  10.8 °C 22.6 °F /  -5.2 °C 30.01 in /  1016.1 hPa West 3.2 mph /  5.1 km/h 5.8 mph /  9.3 km/h 32 % 0.00 in /  0 mm
14:29 51.6 °F /  10.9 °C 23.4 °F /  -4.8 °C 30.01 in /  1016.1 hPa WNW 7.2 mph /  11.6 km/h 11.5 mph /  18.5 km/h 33 % 0.00 in /  0 mm
14:34 51.7 °F /  10.9 °C 24.2 °F /  -4.3 °C 30.01 in /  1016.1 hPa WNW 2.3 mph /  3.7 km/h 6.9 mph /  11.1 km/h 34 % 0.00 in /  0 mm
14:39 51.8 °F /  11 °C 23.6 °F /  -4.7 °C 30.01 in /  1016.1 hPa NW 5.6 mph /  9 km/h 10.4 mph /  16.7 km/h 33 % 0.00 in /  0 mm
14:45 51.8 °F /  11 °C 22.8 °F /  -5.1 °C 30.01 in /  1016.1 hPa West 4.0 mph /  6.4 km/h 6.9 mph /  11.1 km/h 32 % 0.00 in /  0 mm
14:50 51.9 °F /  11.1 °C 25.1 °F /  -3.8 °C 30.01 in /  1016.1 hPa NW 3.8 mph /  6.1 km/h 9.0 mph /  14.5 km/h 35 % 0.00 in /  0 mm
14:55 52.0 °F /  11.1 °C 23.0 °F /  -5 °C 30.01 in /  1016.1 hPa WNW 8.0 mph /  12.9 km/h 11.5 mph /  18.5 km/h 32 % 0.00 in /  0 mm
15:00 51.9 °F /  11.1 °C 24.4 °F /  -4.2 °C 30.00 in /  1015.8 hPa WNW 2.7 mph /  4.3 km/h 11.5 mph /  18.5 km/h 34 % 0.00 in /  0 mm
15:05 52.0 °F /  11.1 °C 23.8 °F /  -4.6 °C 30.00 in /  1015.8 hPa NNW 4.6 mph /  7.4 km/h 8.1 mph /  13 km/h 33 % 0.00 in /  0 mm
15:10 52.0 °F /  11.1 °C 23.8 °F /  -4.6 °C 30.00 in /  1015.8 hPa NNW 3.6 mph /  5.8 km/h 5.8 mph /  9.3 km/h 33 % 0.00 in /  0 mm
15:15 52.0 °F /  11.1 °C 23.0 °F /  -5 °C 30.00 in /  1015.8 hPa WNW 5.0 mph /  8 km/h 9.2 mph /  14.8 km/h 32 % 0.00 in /  0 mm
15:20 51.9 °F /  11.1 °C 23.7 °F /  -4.6 °C 30.00 in /  1015.8 hPa WNW 6.0 mph /  9.7 km/h 10.4 mph /  16.7 km/h 33 % 0.00 in /  0 mm
15:25 51.8 °F /  11 °C 24.3 °F /  -4.3 °C 29.99 in /  1015.5 hPa NW 5.7 mph /  9.2 km/h 9.2 mph /  14.8 km/h 34 % 0.00 in /  0 mm
15:30 51.8 °F /  11 °C 23.6 °F /  -4.7 °C 30.00 in /  1015.8 hPa West 5.7 mph /  9.2 km/h 10.4 mph /  16.7 km/h 33 % 0.00 in /  0 mm
15:35 51.6 °F /  10.9 °C 23.4 °F /  -4.8 °C 29.99 in /  1015.5 hPa WNW 5.9 mph /  9.5 km/h 10.4 mph /  16.7 km/h 33 % 0.00 in /  0 mm
15:40 51.5 °F /  10.8 °C 24.7 °F /  -4.1 °C 29.99 in /  1015.5 hPa WNW 2.7 mph /  4.3 km/h 5.0 mph /  8 km/h 35 % 0.00 in /  0 mm
15:45 51.4 °F /  10.8 °C 22.5 °F /  -5.3 °C 29.99 in /  1015.5 hPa WNW 6.8 mph /  10.9 km/h 10.4 mph /  16.7 km/h 32 % 0.00 in /  0 mm
15:50 51.4 °F /  10.8 °C 22.5 °F /  -5.3 °C 29.98 in /  1015.1 hPa WSW 7.2 mph /  11.6 km/h 10.4 mph /  16.7 km/h 32 % 0.00 in /  0 mm
15:51 51.4 °F /  10.8 °C 22.5 °F /  -5.3 °C 29.98 in /  1015.1 hPa WNW 5.9 mph /  9.5 km/h 10.4 mph /  16.7 km/h 32 % 0.00 in /  0 mm
15:56 51.5 °F /  10.8 °C 23.3 °F /  -4.8 °C 29.98 in /  1015.1 hPa WNW 6.3 mph /  10.1 km/h 11.5 mph /  18.5 km/h 33 % 0.00 in /  0 mm
16:01 51.5 °F /  10.8 °C 23.3 °F /  -4.8 °C 29.98 in /  1015.1 hPa WNW 4.4 mph /  7.1 km/h 7.0 mph /  11.3 km/h 33 % 0.00 in /  0 mm
16:06 51.5 °F /  10.8 °C 22.6 °F /  -5.2 °C 29.98 in /  1015.1 hPa WNW 6.3 mph /  10.1 km/h 10.4 mph /  16.7 km/h 32 % 0.00 in /  0 mm
16:11 51.5 °F /  10.8 °C 23.3 °F /  -4.8 °C 29.98 in /  1015.1 hPa WNW 5.8 mph /  9.3 km/h 9.2 mph /  14.8 km/h 33 % 0.00 in /  0 mm
16:16 51.3 °F /  10.7 °C 23.1 °F /  -4.9 °C 29.98 in /  1015.1 hPa WNW 5.4 mph /  8.7 km/h 11.5 mph /  18.5 km/h 33 % 0.00 in /  0 mm
16:21 51.2 °F /  10.7 °C 23.8 °F /  -4.6 °C 29.98 in /  1015.1 hPa WNW 3.1 mph /  5 km/h 5.0 mph /  8 km/h 34 % 0.00 in /  0 mm
16:26 51.4 °F /  10.8 °C 23.2 °F /  -4.9 °C 29.98 in /  1015.1 hPa NW 4.4 mph /  7.1 km/h 8.1 mph /  13 km/h 33 % 0.00 in /  0 mm
16:31 51.5 °F /  10.8 °C 22.6 °F /  -5.2 °C 29.98 in /  1015.1 hPa WNW 5.6 mph /  9 km/h 8.1 mph /  13 km/h 32 % 0.00 in /  0 mm
16:36 51.5 °F /  10.8 °C 24.0 °F /  -4.4 °C 29.97 in /  1014.8 hPa West 3.2 mph /  5.1 km/h 6.9 mph /  11.1 km/h 34 % 0.00 in /  0 mm
16:41 51.6 °F /  10.9 °C 21.9 °F /  -5.6 °C 29.97 in /  1014.8 hPa West 2.0 mph /  3.2 km/h 6.0 mph /  9.7 km/h 31 % 0.00 in /  0 mm
16:46 51.7 °F /  10.9 °C 22.0 °F /  -5.6 °C 29.97 in /  1014.8 hPa West 3.8 mph /  6.1 km/h 6.9 mph /  11.1 km/h 31 % 0.00 in /  0 mm
16:51 51.7 °F /  10.9 °C 21.2 °F /  -6 °C 29.97 in /  1014.8 hPa WNW 4.3 mph /  6.9 km/h 6.9 mph /  11.1 km/h 30 % 0.00 in /  0 mm
16:56 51.5 °F /  10.8 °C 22.6 °F /  -5.2 °C 29.97 in /  1014.8 hPa WNW 3.1 mph /  5 km/h 5.8 mph /  9.3 km/h 32 % 0.00 in /  0 mm
17:01 51.2 °F /  10.7 °C 22.3 °F /  -5.4 °C 29.96 in /  1014.4 hPa WNW 3.4 mph /  5.5 km/h 5.0 mph /  8 km/h 32 % 0.00 in /  0 mm
17:06 50.9 °F /  10.5 °C 22.1 °F /  -5.5 °C 29.96 in /  1014.4 hPa WNW 4.9 mph /  7.9 km/h 8.1 mph /  13 km/h 32 % 0.00 in /  0 mm
17:11 50.8 °F /  10.4 °C 22.0 °F /  -5.6 °C 29.96 in /  1014.4 hPa NW 4.4 mph /  7.1 km/h 6.9 mph /  11.1 km/h 32 % 0.00 in /  0 mm
17:16 50.6 °F /  10.3 °C 23.2 °F /  -4.9 °C 29.96 in /  1014.4 hPa NW 2.2 mph /  3.5 km/h 3.5 mph /  5.6 km/h 34 % 0.00 in /  0 mm
17:21 50.6 °F /  10.3 °C 22.5 °F /  -5.3 °C 29.95 in /  1014.1 hPa NNW 1.9 mph /  3.1 km/h 3.5 mph /  5.6 km/h 33 % 0.00 in /  0 mm
17:26 50.5 °F /  10.3 °C 20.9 °F /  -6.2 °C 29.95 in /  1014.1 hPa WNW 4.7 mph /  7.6 km/h 6.9 mph /  11.1 km/h 31 % 0.00 in /  0 mm
17:31 50.5 °F /  10.3 °C 20.2 °F /  -6.6 °C 29.95 in /  1014.1 hPa WNW 3.8 mph /  6.1 km/h 4.6 mph /  7.4 km/h 30 % 0.00 in /  0 mm
17:36 50.4 °F /  10.2 °C 20.9 °F /  -6.2 °C 29.95 in /  1014.1 hPa WNW 1.0 mph /  1.6 km/h 3.5 mph /  5.6 km/h 31 % 0.00 in /  0 mm
17:41 50.4 °F /  10.2 °C 21.6 °F /  -5.8 °C 29.95 in /  1014.1 hPa WNW 3.1 mph /  5 km/h 4.0 mph /  6.4 km/h 32 % 0.00 in /  0 mm
17:46 50.3 °F /  10.2 °C 23.0 °F /  -5 °C 29.95 in /  1014.1 hPa NW 1.1 mph /  1.8 km/h 3.5 mph /  5.6 km/h 34 % 0.00 in /  0 mm
17:51 50.1 °F /  10.1 °C 22.1 °F /  -5.5 °C 29.95 in /  1014.1 hPa WNW 2.9 mph /  4.7 km/h 3.5 mph /  5.6 km/h 33 % 0.00 in /  0 mm
17:56 50.0 °F /  10 °C 22.7 °F /  -5.2 °C 29.95 in /  1014.1 hPa WNW 3.2 mph /  5.1 km/h 4.6 mph /  7.4 km/h 34 % 0.00 in /  0 mm
18:01 50.0 °F /  10 °C 22.7 °F /  -5.2 °C 29.95 in /  1014.1 hPa WNW 1.4 mph /  2.3 km/h 3.0 mph /  4.8 km/h 34 % 0.00 in /  0 mm
18:06 49.9 °F /  9.9 °C 22.6 °F /  -5.2 °C 29.94 in /  1013.8 hPa WNW 0.2 mph /  0.3 km/h 2.3 mph /  3.7 km/h 34 % 0.00 in /  0 mm
18:11 49.9 °F /  9.9 °C 23.3 °F /  -4.8 °C 29.94 in /  1013.8 hPa WNW 1.4 mph /  2.3 km/h 4.0 mph /  6.4 km/h 35 % 0.00 in /  0 mm
18:16 49.9 °F /  9.9 °C 22.6 °F /  -5.2 °C 29.94 in /  1013.8 hPa NW 2.9 mph /  4.7 km/h 4.0 mph /  6.4 km/h 34 % 0.00 in /  0 mm
18:21 49.9 °F /  9.9 °C 22.6 °F /  -5.2 °C 29.94 in /  1013.8 hPa NW 4.0 mph /  6.4 km/h 5.8 mph /  9.3 km/h 34 % 0.00 in /  0 mm
18:26 49.8 °F /  9.9 °C 22.5 °F /  -5.3 °C 29.95 in /  1014.1 hPa WNW 3.0 mph /  4.8 km/h 6.9 mph /  11.1 km/h 34 % 0.00 in /  0 mm
18:31 49.7 °F /  9.8 °C 21.7 °F /  -5.7 °C 29.95 in /  1014.1 hPa WNW 2.4 mph /  3.9 km/h 3.5 mph /  5.6 km/h 33 % 0.00 in /  0 mm
18:36 49.7 °F /  9.8 °C 22.4 °F /  -5.3 °C 29.94 in /  1013.8 hPa Calm     34 % 0.00 in /  0 mm
18:42 49.6 °F /  9.8 °C 23.0 °F /  -5 °C 29.94 in /  1013.8 hPa WNW 0.8 mph /  1.3 km/h 3.5 mph /  5.6 km/h 35 % 0.00 in /  0 mm
18:47 49.4 °F /  9.7 °C 23.5 °F /  -4.7 °C 29.94 in /  1013.8 hPa WNW 1.7 mph /  2.7 km/h 3.5 mph /  5.6 km/h 36 % 0.00 in /  0 mm
18:52 49.1 °F /  9.5 °C 23.3 °F /  -4.8 °C 29.94 in /  1013.8 hPa West 2.4 mph /  3.9 km/h 3.5 mph /  5.6 km/h 36 % 0.00 in /  0 mm
18:57 48.8 °F /  9.3 °C 23.0 °F /  -5 °C 29.95 in /  1014.1 hPa West 1.2 mph /  1.9 km/h 2.3 mph /  3.7 km/h 36 % 0.00 in /  0 mm
19:02 48.7 °F /  9.3 °C 22.9 °F /  -5.1 °C 29.94 in /  1013.8 hPa West 0.7 mph /  1.1 km/h 1.2 mph /  1.9 km/h 36 % 0.00 in /  0 mm
19:07 48.5 °F /  9.2 °C 22.7 °F /  -5.2 °C 29.94 in /  1013.8 hPa Calm     36 % 0.00 in /  0 mm
19:12 48.3 °F /  9.1 °C 23.2 °F /  -4.9 °C 29.93 in /  1013.4 hPa Calm     37 % 0.00 in /  0 mm
19:17 48.2 °F /  9 °C 23.7 °F /  -4.6 °C 29.94 in /  1013.8 hPa Calm     38 % 0.00 in /  0 mm
19:22 48.0 °F /  8.9 °C 24.2 °F /  -4.3 °C 29.94 in /  1013.8 hPa Calm   1.2 mph /  1.9 km/h 39 % 0.00 in /  0 mm
19:27 47.8 °F /  8.8 °C 24.6 °F /  -4.1 °C 29.94 in /  1013.8 hPa Calm     40 % 0.00 in /  0 mm
19:32 47.5 °F /  8.6 °C 24.9 °F /  -3.9 °C 29.94 in /  1013.8 hPa Calm     41 % 0.00 in /  0 mm
19:37 47.2 °F /  8.4 °C 24.1 °F /  -4.4 °C 29.94 in /  1013.8 hPa Calm     40 % 0.00 in /  0 mm
19:42 46.9 °F /  8.3 °C 25.0 °F /  -3.9 °C 29.94 in /  1013.8 hPa Calm     42 % 0.00 in /  0 mm
19:47 46.5 °F /  8.1 °C 24.6 °F /  -4.1 °C 29.94 in /  1013.8 hPa Calm     42 % 0.00 in /  0 mm
19:52 46.2 °F /  7.9 °C 24.9 °F /  -3.9 °C 29.94 in /  1013.8 hPa Calm     43 % 0.00 in /  0 mm
19:57 45.9 °F /  7.7 °C 24.6 °F /  -4.1 °C 29.94 in /  1013.8 hPa Calm     43 % 0.00 in /  0 mm
20:02 45.5 °F /  7.5 °C 24.3 °F /  -4.3 °C 29.95 in /  1014.1 hPa West 0.4 mph /  0.6 km/h 1.2 mph /  1.9 km/h 43 % 0.00 in /  0 mm
20:07 45.2 °F /  7.3 °C 25.1 °F /  -3.8 °C 29.94 in /  1013.8 hPa Calm     45 % 0.00 in /  0 mm
20:12 44.9 °F /  7.2 °C 25.3 °F /  -3.7 °C 29.94 in /  1013.8 hPa West 0.6 mph /  1 km/h 1.2 mph /  1.9 km/h 46 % 0.00 in /  0 mm
20:17 44.4 °F /  6.9 °C 25.4 °F /  -3.7 °C 29.94 in /  1013.8 hPa Calm     47 % 0.00 in /  0 mm
20:22 44.1 °F /  6.7 °C 25.1 °F /  -3.8 °C 29.94 in /  1013.8 hPa Calm     47 % 0.00 in /  0 mm
20:27 43.8 °F /  6.6 °C 25.4 °F /  -3.7 °C 29.95 in /  1014.1 hPa West 0.1 mph /  0.2 km/h   48 % 0.00 in /  0 mm
20:32 43.5 °F /  6.4 °C 25.1 °F /  -3.8 °C 29.95 in /  1014.1 hPa West 0.5 mph /  0.8 km/h 1.2 mph /  1.9 km/h 48 % 0.00 in /  0 mm
20:37 43.1 °F /  6.2 °C 24.7 °F /  -4.1 °C 29.95 in /  1014.1 hPa Calm   1.2 mph /  1.9 km/h 48 % 0.00 in /  0 mm
20:42 42.9 °F /  6.1 °C 24.5 °F /  -4.2 °C 29.95 in /  1014.1 hPa Calm     48 % 0.00 in /  0 mm
20:47 42.7 °F /  5.9 °C 24.8 °F /  -4 °C 29.95 in /  1014.1 hPa West 0.6 mph /  1 km/h 1.2 mph /  1.9 km/h 49 % 0.00 in /  0 mm
20:52 42.3 °F /  5.7 °C 25.0 °F /  -3.9 °C 29.95 in /  1014.1 hPa West 0.8 mph /  1.3 km/h 1.2 mph /  1.9 km/h 50 % 0.00 in /  0 mm
20:57 42.1 °F /  5.6 °C 24.3 °F /  -4.3 °C 29.95 in /  1014.1 hPa West 0.9 mph /  1.4 km/h 1.2 mph /  1.9 km/h 49 % 0.00 in /  0 mm
21:02 42.0 °F /  5.6 °C 23.7 °F /  -4.6 °C 29.95 in /  1014.1 hPa West 1.5 mph /  2.4 km/h 2.3 mph /  3.7 km/h 48 % 0.00 in /  0 mm
21:07 41.9 °F /  5.5 °C 23.6 °F /  -4.7 °C 29.96 in /  1014.4 hPa West 1.5 mph /  2.4 km/h 3.5 mph /  5.6 km/h 48 % 0.00 in /  0 mm
21:12 41.8 °F /  5.4 °C 24.0 °F /  -4.4 °C 29.96 in /  1014.4 hPa West 1.7 mph /  2.7 km/h 2.3 mph /  3.7 km/h 49 % 0.00 in /  0 mm
21:17 41.8 °F /  5.4 °C 24.5 °F /  -4.2 °C 29.96 in /  1014.4 hPa West 1.0 mph /  1.6 km/h 2.3 mph /  3.7 km/h 50 % 0.00 in /  0 mm
21:23 41.7 °F /  5.4 °C 23.9 °F /  -4.5 °C 29.96 in /  1014.4 hPa West 1.3 mph /  2.1 km/h 2.3 mph /  3.7 km/h 49 % 0.00 in /  0 mm
21:27 41.6 °F /  5.3 °C 24.3 °F /  -4.3 °C 29.96 in /  1014.4 hPa West 1.6 mph /  2.6 km/h 2.3 mph /  3.7 km/h 50 % 0.00 in /  0 mm
21:32 41.5 °F /  5.3 °C 24.2 °F /  -4.3 °C 29.96 in /  1014.4 hPa West 0.4 mph /  0.6 km/h 2.3 mph /  3.7 km/h 50 % 0.00 in /  0 mm
21:37 41.5 °F /  5.3 °C 24.2 °F /  -4.3 °C 29.96 in /  1014.4 hPa West 0.7 mph /  1.1 km/h 3.5 mph /  5.6 km/h 50 % 0.00 in /  0 mm
21:43 41.4 °F /  5.2 °C 24.1 °F /  -4.4 °C 29.96 in /  1014.4 hPa West 1.0 mph /  1.6 km/h 3.0 mph /  4.8 km/h 50 % 0.00 in /  0 mm
21:48 41.3 °F /  5.2 °C 23.6 °F /  -4.7 °C 29.96 in /  1014.4 hPa West 1.3 mph /  2.1 km/h 3.5 mph /  5.6 km/h 49 % 0.00 in /  0 mm
21:53 41.2 °F /  5.1 °C 23.5 °F /  -4.7 °C 29.96 in /  1014.4 hPa West 1.4 mph /  2.3 km/h 3.0 mph /  4.8 km/h 49 % 0.00 in /  0 mm
21:58 41.1 °F /  5.1 °C 23.4 °F /  -4.8 °C 29.96 in /  1014.4 hPa West 1.9 mph /  3.1 km/h 3.5 mph /  5.6 km/h 49 % 0.00 in /  0 mm
22:03 41.1 °F /  5.1 °C 22.9 °F /  -5.1 °C 29.96 in /  1014.4 hPa WSW 2.5 mph /  4 km/h 3.5 mph /  5.6 km/h 48 % 0.00 in /  0 mm
22:08 41.1 °F /  5.1 °C 22.9 °F /  -5.1 °C 29.96 in /  1014.4 hPa WSW 2.6 mph /  4.2 km/h 3.5 mph /  5.6 km/h 48 % 0.00 in /  0 mm
22:13 41.1 °F /  5.1 °C 23.4 °F /  -4.8 °C 29.96 in /  1014.4 hPa SW 3.0 mph /  4.8 km/h 5.0 mph /  8 km/h 49 % 0.00 in /  0 mm
22:18 41.2 °F /  5.1 °C 23.0 °F /  -5 °C 29.96 in /  1014.4 hPa WSW 1.6 mph /  2.6 km/h 3.5 mph /  5.6 km/h 48 % 0.00 in /  0 mm
22:23 41.3 °F /  5.2 °C 23.1 °F /  -4.9 °C 29.96 in /  1014.4 hPa WSW 1.2 mph /  1.9 km/h 2.3 mph /  3.7 km/h 48 % 0.00 in /  0 mm
22:28 41.4 °F /  5.2 °C 23.2 °F /  -4.9 °C 29.96 in /  1014.4 hPa WSW 1.9 mph /  3.1 km/h 3.5 mph /  5.6 km/h 48 % 0.00 in /  0 mm
22:33 41.5 °F /  5.3 °C 23.2 °F /  -4.9 °C 29.96 in /  1014.4 hPa WSW 1.1 mph /  1.8 km/h 2.3 mph /  3.7 km/h 48 % 0.00 in /  0 mm
22:38 41.7 °F /  5.4 °C 23.9 °F /  -4.5 °C 29.95 in /  1014.1 hPa WSW 0.9 mph /  1.4 km/h 2.3 mph /  3.7 km/h 49 % 0.00 in /  0 mm
22:43 41.9 °F /  5.5 °C 24.6 °F /  -4.1 °C 29.96 in /  1014.4 hPa WSW 0.4 mph /  0.6 km/h 1.2 mph /  1.9 km/h 50 % 0.00 in /  0 mm
22:48 42.0 °F /  5.6 °C 25.2 °F /  -3.8 °C 29.96 in /  1014.4 hPa WSW 1.2 mph /  1.9 km/h 2.3 mph /  3.7 km/h 51 % 0.00 in /  0 mm
22:53 42.1 °F /  5.6 °C 25.3 °F /  -3.7 °C 29.96 in /  1014.4 hPa WSW 0.5 mph /  0.8 km/h 2.0 mph /  3.2 km/h 51 % 0.00 in /  0 mm
22:58 42.2 °F /  5.7 °C 25.3 °F /  -3.7 °C 29.95 in /  1014.1 hPa SW 1.3 mph /  2.1 km/h 3.0 mph /  4.8 km/h 51 % 0.00 in /  0 mm
23:03 42.3 °F /  5.7 °C 25.9 °F /  -3.4 °C 29.95 in /  1014.1 hPa SW 1.3 mph /  2.1 km/h 2.3 mph /  3.7 km/h 52 % 0.00 in /  0 mm
23:08 42.4 °F /  5.8 °C 26.5 °F /  -3.1 °C 29.95 in /  1014.1 hPa SW 2.0 mph /  3.2 km/h 3.5 mph /  5.6 km/h 53 % 0.00 in /  0 mm
23:13 42.4 °F /  5.8 °C 26.5 °F /  -3.1 °C 29.95 in /  1014.1 hPa SW 0.6 mph /  1 km/h 2.3 mph /  3.7 km/h 53 % 0.00 in /  0 mm
23:18 42.4 °F /  5.8 °C 26.9 °F /  -2.8 °C 29.95 in /  1014.1 hPa SW 0.4 mph /  0.6 km/h 1.2 mph /  1.9 km/h 54 % 0.00 in /  0 mm
23:23 42.5 °F /  5.8 °C 26.6 °F /  -3 °C 29.94 in /  1013.8 hPa SW 1.0 mph /  1.6 km/h 2.3 mph /  3.7 km/h 53 % 0.00 in /  0 mm
23:28 42.5 °F /  5.8 °C 26.6 °F /  -3 °C 29.95 in /  1014.1 hPa SW 0.9 mph /  1.4 km/h 2.3 mph /  3.7 km/h 53 % 0.00 in /  0 mm
23:33 42.5 °F /  5.8 °C 27.0 °F /  -2.8 °C 29.94 in /  1013.8 hPa SW 0.2 mph /  0.3 km/h 2.3 mph /  3.7 km/h 54 % 0.00 in /  0 mm
23:38 42.5 °F /  5.8 °C 27.0 °F /  -2.8 °C 29.94 in /  1013.8 hPa SW 0.4 mph /  0.6 km/h 2.3 mph /  3.7 km/h 54 % 0.00 in /  0 mm
23:43 42.6 °F /  5.9 °C 26.6 °F /  -3 °C 29.94 in /  1013.8 hPa West 1.0 mph /  1.6 km/h 2.3 mph /  3.7 km/h 53 % 0.00 in /  0 mm
23:48 42.6 °F /  5.9 °C 26.6 °F /  -3 °C 29.93 in /  1013.4 hPa West 2.0 mph /  3.2 km/h 3.5 mph /  5.6 km/h 53 % 0.00 in /  0 mm
23:53 42.6 °F /  5.9 °C 26.6 °F /  -3 °C 29.94 in /  1013.8 hPa SW 1.3 mph /  2.1 km/h 3.5 mph /  5.6 km/h 53 % 0.00 in /  0 mm
23:58 42.7 °F /  5.9 °C 26.7 °F /  -2.9 °C 29.93 in /  1013.4 hPa WSW 2.1 mph /  3.4 km/h 3.5 mph /  5.6 km/h 53 % 0.00 in /  0 mm
Crab Meadow Weather
Compliments of Weather Underground - 3 mb

Script developed by  Jim McMurry - jmcmurry@mwt.net Adapted for the template by  Wim van der Kuil - Leuven-Template.eu

Weather Terms: Freeze Warning - Widespread temperatures at or below 32°F during the growing season. A freeze may occur with or without frost. A hard freeze occurs with temperatures below 28°F. Growing season is based on the average date of first and last freeze at O'Hare. It begins April 17 and ends October 27.